Time;durP1;ratioP1;P1;durP2;ratioP2;P2;SDS_P1;SDS_P2;PMS_P1;PMS_P2;Temp;Humidity;BMP_temperature;BMP_pressure;BME280_temperature;BME280_humidity;BME280_pressure;Samples;Min_cycle;Max_cycle;Signal;HPM_P1;HPM_P2
2023/11/09 00:01:59;;;;;;;8.80;3.13;;;;;;;5.58;96.07;98789.94;5087361;28;20080;-45
2023/11/09 00:04:26;;;;;;;5.53;1.38;;;;;;;5.57;96.00;98782.84;5089305;28;20062;-46
2023/11/09 00:06:55;;;;;;;2.83;1.10;;;;;;;5.54;96.15;98785.16;5068271;28;20517;-43
2023/11/09 00:09:22;;;;;;;6.10;1.35;;;;;;;5.53;96.20;98791.81;5086025;28;20048;-44
2023/11/09 00:11:52;;;;;;;10.38;2.10;;;;;;;5.53;96.21;98780.81;5077544;28;20607;-44
2023/11/09 00:14:19;;;;;;;5.70;1.20;;;;;;;5.53;95.93;98777.31;5091095;28;20044;-43
2023/11/09 00:16:46;;;;;;;3.10;0.90;;;;;;;5.53;95.95;98777.31;5090990;28;20130;-43
2023/11/09 00:19:13;;;;;;;6.68;1.25;;;;;;;5.50;96.06;98773.34;5089685;28;20097;-44
2023/11/09 00:21:40;;;;;;;10.88;1.83;;;;;;;5.49;95.96;98771.72;5090756;28;20063;-43
2023/11/09 00:24:10;;;;;;;3.53;1.23;;;;;;;5.49;96.36;98768.19;5090402;28;20623;-43
2023/11/09 00:26:41;;;;;;;8.70;1.45;;;;;;;5.47;95.94;98778.72;5090762;28;20134;-44
2023/11/09 00:29:09;;;;;;;5.72;1.75;;;;;;;5.45;96.01;98770.84;5084738;28;20413;-43
2023/11/09 00:31:37;;;;;;;5.22;1.17;;;;;;;5.45;95.86;98768.09;5090370;28;20051;-43
2023/11/09 00:34:04;;;;;;;5.03;1.30;;;;;;;5.45;96.18;98761.84;5085105;28;20054;-43
2023/11/09 00:36:32;;;;;;;9.75;1.67;;;;;;;5.44;96.00;98762.97;5090652;28;20036;-45
2023/11/09 00:38:58;;;;;;;6.32;2.70;;;;;;;5.42;96.27;98757.06;5089942;28;20074;-43
2023/11/09 00:41:25;;;;;;;9.70;2.40;;;;;;;5.42;95.89;98759.81;5090537;28;20070;-44
2023/11/09 00:43:52;;;;;;;12.98;1.90;;;;;;;5.42;96.24;98759.81;5090045;28;20509;-43
2023/11/09 00:46:23;;;;;;;8.03;2.20;;;;;;;5.44;96.18;98752.00;5071619;28;20044;-44
2023/11/09 00:48:50;;;;;;;5.72;1.55;;;;;;;5.44;96.12;98750.06;5089095;28;20048;-47
2023/11/09 00:51:20;;;;;;;8.10;1.45;;;;;;;5.45;96.04;98746.16;5090283;28;20060;-43
2023/11/09 00:53:48;;;;;;;8.07;1.80;;;;;;;5.45;96.28;98743.41;5090008;28;20146;-43
2023/11/09 00:56:15;;;;;;;7.93;1.65;;;;;;;5.44;96.18;98741.84;5090116;28;20048;-44
2023/11/09 00:58:42;;;;;;;9.10;2.95;;;;;;;5.45;96.11;98734.41;5090008;28;21103;-43
2023/11/09 01:01:09;;;;;;;11.13;1.65;;;;;;;5.43;96.19;98734.75;5088874;28;20148;-44
2023/11/09 01:03:37;;;;;;;8.70;1.40;;;;;;;5.44;96.23;98736.34;5084603;28;20120;-44
2023/11/09 01:06:07;;;;;;;8.93;1.52;;;;;;;5.46;96.38;98720.31;5082409;28;20565;-44
2023/11/09 01:08:34;;;;;;;10.70;1.77;;;;;;;5.46;96.31;98720.31;5089891;28;20055;-43
2023/11/09 01:11:05;;;;;;;5.28;1.40;;;;;;;5.48;96.42;98709.75;5089174;28;20411;-43
2023/11/09 01:13:33;;;;;;;5.80;1.42;;;;;;;5.49;96.15;98702.31;5089950;28;20047;-43
2023/11/09 01:16:01;;;;;;;10.32;1.50;;;;;;;5.50;96.33;98698.44;5088821;28;20036;-44
2023/11/09 01:18:29;;;;;;;5.28;1.60;;;;;;;5.51;96.27;98695.31;5089967;28;20543;-42
2023/11/09 01:20:56;;;;;;;12.27;1.23;;;;;;;5.51;96.24;98692.56;5089249;28;20047;-44
2023/11/09 01:23:23;;;;;;;4.18;0.88;;;;;;;5.52;96.14;98688.69;5089812;28;20044;-44
2023/11/09 01:25:50;;;;;;;4.50;1.20;;;;;;;5.51;96.08;98681.59;5089216;28;20085;-42
2023/11/09 01:28:17;;;;;;;7.30;1.58;;;;;;;5.51;96.29;98678.84;5084686;28;20052;-43
2023/11/09 01:30:46;;;;;;;11.05;1.75;;;;;;;5.53;96.23;98673.00;5085345;28;20052;-43
2023/11/09 01:33:14;;;;;;;6.35;1.15;;;;;;;5.53;96.21;98684.75;5088780;28;20108;-44
2023/11/09 01:35:47;;;;;;;6.28;1.40;;;;;;;5.53;96.17;98676.53;5086827;28;20074;-43
2023/11/09 01:38:14;;;;;;;7.55;1.35;;;;;;;5.54;95.92;98671.84;5089435;28;20155;-43
2023/11/09 01:40:40;;;;;;;11.43;1.60;;;;;;;5.57;96.19;98684.03;5089430;28;20849;-43
2023/11/09 01:43:14;;;;;;;6.65;1.00;;;;;;;5.58;96.05;98672.72;5089011;28;20057;-43
2023/11/09 01:45:43;;;;;;;5.57;2.05;;;;;;;5.61;96.14;98654.72;5089087;28;20048;-45
2023/11/09 01:48:11;;;;;;;14.48;1.95;;;;;;;5.63;96.10;98655.16;5088305;28;20040;-46
2023/11/09 01:50:38;;;;;;;6.95;2.85;;;;;;;5.66;96.12;98652.47;5088289;28;20434;-44
2023/11/09 01:53:07;;;;;;;7.57;1.35;;;;;;;5.68;95.96;98652.09;5069904;28;20085;-48
2023/11/09 01:55:34;;;;;;;5.53;1.58;;;;;;;5.69;95.68;98637.25;5088275;28;20036;-43
2023/11/09 01:58:03;;;;;;;6.32;1.20;;;;;;;5.70;95.87;98642.34;5090725;28;20062;-43
2023/11/09 02:00:32;;;;;;;11.20;1.98;;;;;;;5.73;95.80;98644.38;5088944;28;20051;-45
2023/11/09 02:02:59;;;;;;;6.05;1.40;;;;;;;5.76;95.55;98648.34;5088316;28;20066;-45
2023/11/09 02:05:26;;;;;;;7.85;1.42;;;;;;;5.76;95.72;98635.41;5089006;28;20054;-43
2023/11/09 02:07:53;;;;;;;7.25;1.50;;;;;;;5.78;95.40;98626.81;5087642;28;20036;-45
2023/11/09 02:10:21;;;;;;;3.72;0.98;;;;;;;5.80;95.46;98608.03;5088544;28;20032;-43
2023/11/09 02:12:49;;;;;;;5.55;1.20;;;;;;;5.83;95.29;98615.50;5087634;28;20066;-44
2023/11/09 02:15:15;;;;;;;5.50;1.67;;;;;;;5.85;95.56;98607.75;5087864;28;20048;-43
2023/11/09 02:17:42;;;;;;;5.45;1.45;;;;;;;5.86;95.23;98614.81;5082814;28;20055;-44
2023/11/09 02:20:13;;;;;;;4.43;1.00;;;;;;;5.88;95.04;98605.06;5087866;28;20130;-43
2023/11/09 02:22:43;;;;;;;8.25;1.83;;;;;;;5.89;94.91;98603.09;5087966;28;20835;-43
2023/11/09 02:25:10;;;;;;;6.55;1.25;;;;;;;5.86;94.90;98598.34;5088252;28;20405;-43
2023/11/09 02:27:37;;;;;;;6.35;1.10;;;;;;;5.83;94.65;98597.09;5088172;28;20055;-43
2023/11/09 02:30:05;;;;;;;3.30;0.93;;;;;;;5.80;94.90;98594.31;5079687;28;20192;-44
2023/11/09 02:32:32;;;;;;;5.60;1.10;;;;;;;5.77;94.57;98589.53;5087216;28;20097;-43
2023/11/09 02:35:00;;;;;;;6.13;1.63;;;;;;;5.72;94.16;98574.13;5082954;28;20036;-43
2023/11/09 02:37:27;;;;;;;9.15;2.05;;;;;;;5.69;94.44;98576.84;5087853;28;20044;-43
2023/11/09 02:39:54;;;;;;;6.22;1.10;;;;;;;5.67;94.40;98579.13;5088398;28;20142;-43
2023/11/09 02:42:22;;;;;;;5.13;0.85;;;;;;;5.65;94.43;98570.47;5084181;28;20055;-43
2023/11/09 02:44:49;;;;;;;3.33;1.05;;;;;;;5.62;94.32;98571.22;5060819;28;20119;-45
2023/11/09 02:47:16;;;;;;;4.18;0.73;;;;;;;5.59;94.40;98564.50;5087725;28;20047;-43
2023/11/09 02:49:43;;;;;;;8.77;1.45;;;;;;;5.59;94.54;98566.47;5088654;28;20191;-45
2023/11/09 02:52:10;;;;;;;5.63;1.13;;;;;;;5.57;94.08;98563.28;5083118;28;20033;-43
2023/11/09 02:54:37;;;;;;;7.20;1.70;;;;;;;5.56;94.59;98556.22;5061267;28;20032;-44
2023/11/09 02:57:05;;;;;;;4.80;1.15;;;;;;;5.53;94.49;98561.25;5086832;28;20040;-43
2023/11/09 02:59:32;;;;;;;4.30;1.13;;;;;;;5.50;94.23;98548.28;5087822;28;20055;-44
2023/11/09 03:01:58;;;;;;;5.43;0.85;;;;;;;5.49;94.08;98546.69;5021619;22;20060;-41
2023/11/09 03:04:25;;;;;;;4.70;1.48;;;;;;;5.46;94.21;98541.94;5067843;28;20119;-43
2023/11/09 03:06:52;;;;;;;3.10;1.00;;;;;;;5.46;94.62;98552.91;5067558;28;20040;-43
2023/11/09 03:09:19;;;;;;;4.07;1.25;;;;;;;5.46;94.44;98536.44;5066619;28;20045;-41
2023/11/09 03:11:46;;;;;;;2.33;0.73;;;;;;;5.44;94.32;98538.75;5067681;28;20037;-46
2023/11/09 03:14:14;;;;;;;6.20;0.90;;;;;;;5.42;94.29;98524.63;5066828;28;20052;-41
2023/11/09 03:16:41;;;;;;;6.25;1.00;;;;;;;5.39;94.00;98519.06;5067014;28;20032;-44
2023/11/09 03:19:07;;;;;;;5.22;1.27;;;;;;;5.37;94.17;98522.19;5065743;28;20151;-43
2023/11/09 03:21:35;;;;;;;3.20;1.00;;;;;;;5.35;94.06;98513.50;5060680;28;20110;-42
2023/11/09 03:24:01;;;;;;;6.47;2.28;;;;;;;5.35;93.97;98508.00;5065589;28;20378;-42
2023/11/09 03:26:29;;;;;;;6.88;1.30;;;;;;;5.33;93.99;98504.84;5066650;28;20060;-42
2023/11/09 03:28:56;;;;;;;8.77;1.08;;;;;;;5.33;94.05;98502.09;5065196;28;20043;-42
2023/11/09 03:31:23;;;;;;;3.42;1.42;;;;;;;5.31;94.31;98495.41;5066219;28;20032;-41
2023/11/09 03:33:50;;;;;;;5.18;1.30;;;;;;;5.30;94.20;98494.59;5061152;28;20059;-41
2023/11/09 03:36:19;;;;;;;5.65;1.85;;;;;;;5.28;94.08;98479.66;5066278;28;20056;-43
2023/11/09 03:38:48;;;;;;;6.93;1.42;;;;;;;5.27;94.22;98483.59;5066520;28;20127;-44
2023/11/09 03:41:15;;;;;;;4.45;1.00;;;;;;;5.23;94.24;98480.78;5066280;28;20055;-42
2023/11/09 03:43:42;;;;;;;3.67;1.75;;;;;;;5.23;94.42;98482.72;5064694;28;20067;-40
2023/11/09 03:46:13;;;;;;;6.72;2.22;;;;;;;5.21;94.34;98482.28;5065668;28;20139;-41
2023/11/09 03:48:40;;;;;;;2.28;1.38;;;;;;;5.20;94.39;98483.44;5064568;28;20044;-45
2023/11/09 03:51:07;;;;;;;3.72;0.98;;;;;;;5.19;94.18;98471.66;5065009;28;20032;-40
2023/11/09 03:53:34;;;;;;;10.80;1.10;;;;;;;5.18;94.28;98464.63;5063413;28;20033;-40
2023/11/09 03:56:01;;;;;;;7.07;1.40;;;;;;;5.18;94.30;98464.63;5065708;28;20049;-44
2023/11/09 03:58:27;;;;;;;8.07;1.02;;;;;;;5.17;94.33;98454.78;5066684;28;20653;-41
2023/11/09 04:00:54;;;;;;;5.78;1.23;;;;;;;5.13;94.29;98462.19;5065314;28;20040;-41
2023/11/09 04:03:21;;;;;;;4.80;1.10;;;;;;;5.14;94.23;98465.69;5066415;28;20804;-40
2023/11/09 04:05:48;;;;;;;10.07;1.45;;;;;;;5.13;94.28;98462.19;5066219;28;20473;-45
2023/11/09 04:08:15;;;;;;;7.07;1.42;;;;;;;5.11;94.65;98450.75;5065470;28;20044;-43
2023/11/09 04:10:41;;;;;;;7.00;0.90;;;;;;;5.11;94.46;98450.00;5065426;28;20035;-44
2023/11/09 04:13:08;;;;;;;7.72;1.83;;;;;;;5.09;94.54;98455.81;5065397;28;20155;-42
2023/11/09 04:15:36;;;;;;;4.13;1.40;;;;;;;5.10;94.19;98434.69;5065967;28;20037;-42
2023/11/09 04:18:03;;;;;;;2.35;1.00;;;;;;;5.08;94.26;98443.28;5065494;28;20044;-41
2023/11/09 04:20:29;;;;;;;3.60;1.02;;;;;;;5.07;94.24;98447.16;5067919;28;20028;-42
2023/11/09 04:22:56;;;;;;;3.70;0.70;;;;;;;5.05;94.55;98444.00;5069276;28;20094;-41
2023/11/09 04:25:23;;;;;;;4.25;1.02;;;;;;;5.04;94.38;98441.63;5068833;28;20056;-42
2023/11/09 04:27:50;;;;;;;4.68;0.93;;;;;;;5.02;94.49;98442.00;5069517;28;20037;-41
2023/11/09 04:30:20;;;;;;;6.43;1.25;;;;;;;4.99;94.15;98439.97;5068429;28;20044;-42
2023/11/09 04:32:51;;;;;;;9.57;1.13;;;;;;;4.97;94.61;98442.28;5069541;28;20508;-45
2023/11/09 04:35:20;;;;;;;6.63;1.08;;;;;;;4.96;94.52;98440.69;5068846;28;20032;-42
2023/11/09 04:37:49;;;;;;;8.45;0.95;;;;;;;4.94;94.48;98434.78;5065148;28;20852;-42
2023/11/09 04:40:16;;;;;;;5.28;1.20;;;;;;;4.93;94.27;98441.41;5068941;28;20074;-44
2023/11/09 04:42:46;;;;;;;3.42;0.63;;;;;;;4.91;94.47;98441.00;5068706;28;20046;-46
2023/11/09 04:45:14;;;;;;;1.95;0.70;;;;;;;4.89;94.64;98430.41;5069083;28;20041;-42
2023/11/09 04:47:42;;;;;;;1.42;1.05;;;;;;;4.88;94.68;98431.56;5068379;28;20040;-44
2023/11/09 04:50:21;;;;;;;3.88;0.75;;;;;;;4.87;94.76;98429.19;5067647;28;20135;-45
2023/11/09 04:53:03;;;;;;;5.07;1.23;;;;;;;4.84;94.58;98421.69;5068666;28;20558;-48
2023/11/09 04:55:53;;;;;;;7.95;1.90;;;;;;;4.83;94.63;98425.56;5068392;28;20555;-42
2023/11/09 05:06:52;;;;;;;3.50;0.70;;;;;;;4.76;94.71;98400.78;5066242;28;20040;-44
2023/11/09 05:09:20;;;;;;;4.63;0.63;;;;;;;4.76;94.68;98392.56;5067165;28;20044;-44
2023/11/09 05:11:47;;;;;;;7.38;1.77;;;;;;;4.73;94.47;98390.53;5068203;28;20505;-44
2023/11/09 05:14:14;;;;;;;7.60;1.35;;;;;;;4.70;94.86;98385.78;5068577;28;20093;-42
2023/11/09 05:16:41;;;;;;;10.50;2.60;;;;;;;4.69;94.56;98382.25;5068903;28;20533;-41
2023/11/09 05:19:09;;;;;;;7.75;2.08;;;;;;;4.69;94.70;98378.69;5068475;28;20040;-44
2023/11/09 05:21:37;;;;;;;9.80;3.03;;;;;;;4.68;94.92;98377.13;5066074;28;20036;-47
2023/11/09 05:24:04;;;;;;;7.15;1.70;;;;;;;4.65;95.01;98381.41;5067711;28;20106;-49
2023/11/09 05:26:33;;;;;;;6.10;1.42;;;;;;;4.65;95.20;98384.13;5051169;28;20072;-42
2023/11/09 05:29:00;;;;;;;7.15;1.13;;;;;;;4.66;94.79;98382.19;5066529;28;20140;-43
2023/11/09 05:31:28;;;;;;;4.15;0.77;;;;;;;4.66;95.05;98393.16;5067165;28;20060;-44
2023/11/09 05:33:55;;;;;;;6.28;1.35;;;;;;;4.67;95.24;98386.50;5063628;28;20045;-43
2023/11/09 05:36:22;;;;;;;2.55;0.70;;;;;;;4.67;95.20;98375.53;5068409;28;20028;-46
2023/11/09 05:38:48;;;;;;;5.30;0.90;;;;;;;4.67;94.85;98375.53;5068081;28;20568;-47
2023/11/09 05:41:17;;;;;;;9.20;1.00;;;;;;;4.67;95.17;98378.28;5068348;28;20040;-42
2023/11/09 05:43:44;;;;;;;3.30;0.80;;;;;;;4.68;95.07;98377.94;5065608;28;20535;-41
2023/11/09 05:46:11;;;;;;;9.02;1.30;;;;;;;4.68;95.07;98379.88;5068437;28;20040;-44
2023/11/09 05:48:39;;;;;;;6.72;0.82;;;;;;;4.68;95.14;98375.19;5068879;28;20056;-42
2023/11/09 05:51:05;;;;;;;4.85;1.10;;;;;;;4.70;95.13;98361.13;5067366;28;20487;-44
2023/11/09 05:53:33;;;;;;;1.92;0.98;;;;;;;4.71;95.09;98365.44;5067653;28;20040;-42
2023/11/09 05:56:00;;;;;;;3.80;1.35;;;;;;;4.72;95.12;98364.28;5067758;28;20044;-48
2023/11/09 05:58:28;;;;;;;8.18;0.95;;;;;;;4.74;94.80;98359.22;5064964;28;20440;-46
2023/11/09 06:00:55;;;;;;;5.50;1.30;;;;;;;4.75;94.99;98347.09;5067225;28;20028;-46
2023/11/09 06:03:22;;;;;;;7.43;1.15;;;;;;;4.75;94.93;98352.59;5067990;28;20140;-44
2023/11/09 06:05:50;;;;;;;3.55;0.80;;;;;;;4.74;94.82;98340.03;5067617;28;20612;-44
2023/11/09 06:08:18;;;;;;;6.68;1.17;;;;;;;4.74;94.85;98323.59;5067618;28;20040;-43
2023/11/09 06:10:47;;;;;;;4.93;1.10;;;;;;;4.74;94.75;98320.84;5067908;28;20152;-46
2023/11/09 06:13:14;;;;;;;5.15;1.48;;;;;;;4.75;95.02;98316.97;5067366;28;20040;-45
2023/11/09 06:15:42;;;;;;;3.95;0.90;;;;;;;4.74;94.89;98318.09;5067534;28;20043;-43
2023/11/09 06:18:09;;;;;;;4.25;1.15;;;;;;;4.73;94.81;98320.06;5067143;28;20288;-41
2023/11/09 06:20:38;;;;;;;6.22;0.88;;;;;;;4.74;94.94;98315.38;5067402;28;20490;-45
2023/11/09 06:23:05;;;;;;;6.07;1.92;;;;;;;4.74;94.89;98313.41;5066951;28;20045;-46
2023/11/09 06:25:32;;;;;;;6.60;1.20;;;;;;;4.74;94.73;98312.63;5067217;28;20545;-42
2023/11/09 06:28:02;;;;;;;4.07;0.70;;;;;;;4.73;95.09;98313.81;5065034;28;20037;-42
2023/11/09 06:30:29;;;;;;;4.55;0.70;;;;;;;4.74;94.96;98312.63;5061196;28;20036;-45
2023/11/09 06:32:56;;;;;;;3.42;0.70;;;;;;;4.74;94.91;98309.88;5067252;28;20040;-42
2023/11/09 06:35:23;;;;;;;2.67;0.70;;;;;;;4.77;95.18;98309.94;5068012;28;20058;-40
2023/11/09 06:37:50;;;;;;;7.15;1.75;;;;;;;4.79;94.83;98304.13;5067976;28;20772;-41
2023/11/09 06:40:17;;;;;;;2.40;0.68;;;;;;;4.79;94.82;98301.38;5064793;28;20040;-41
2023/11/09 06:42:45;;;;;;;4.20;1.02;;;;;;;4.80;94.68;98294.72;5066817;28;20047;-41
2023/11/09 06:45:12;;;;;;;6.55;1.90;;;;;;;4.79;94.66;98288.44;5066287;28;20045;-45
2023/11/09 06:47:40;;;;;;;6.38;0.93;;;;;;;4.80;94.96;98283.75;5067585;28;20127;-46
2023/11/09 06:50:13;;;;;;;6.68;1.05;;;;;;;4.79;94.47;98282.97;5066711;28;20127;-44
2023/11/09 06:52:42;;;;;;;6.47;1.02;;;;;;;4.82;94.82;98286.91;5061843;28;20798;-42
2023/11/09 06:55:10;;;;;;;5.30;1.67;;;;;;;4.82;94.71;98281.44;5066951;28;20047;-42
2023/11/09 06:57:39;;;;;;;6.40;0.93;;;;;;;4.84;94.63;98290.88;5067487;28;20072;-43
2023/11/09 07:00:07;;;;;;;5.45;1.00;;;;;;;4.86;94.55;98282.31;5067029;28;20036;-45
2023/11/09 07:02:34;;;;;;;4.57;0.50;;;;;;;4.83;94.57;98299.47;5066796;28;20052;-42
2023/11/09 07:05:00;;;;;;;3.78;0.80;;;;;;;4.82;94.67;98303.38;5066918;28;20560;-44
2023/11/09 07:07:30;;;;;;;3.88;0.73;;;;;;;4.81;94.76;98285.34;5067730;28;20584;-42
2023/11/09 07:09:57;;;;;;;4.28;0.70;;;;;;;4.82;94.74;98295.13;5066181;28;20067;-44
2023/11/09 07:12:25;;;;;;;4.47;1.30;;;;;;;4.84;94.64;98290.09;5066500;28;20037;-42
2023/11/09 07:14:52;;;;;;;4.97;0.90;;;;;;;4.81;94.64;98286.16;5066583;28;20123;-46
2023/11/09 07:17:22;;;;;;;2.95;0.70;;;;;;;4.80;94.68;98283.75;5066939;28;20056;-43
2023/11/09 07:19:49;;;;;;;7.05;1.17;;;;;;;4.79;94.38;98273.97;5065805;28;20047;-47
2023/11/09 07:22:20;;;;;;;3.58;0.70;;;;;;;4.76;94.54;98267.28;5067249;28;20050;-41
2023/11/09 07:24:56;;;;;;;6.10;1.00;;;;;;;4.75;94.70;98275.84;5058558;28;20036;-42
2023/11/09 07:27:38;;;;;;;6.88;1.30;;;;;;;4.74;94.46;98268.78;5066951;28;20040;-41
2023/11/09 07:30:05;;;;;;;7.18;1.17;;;;;;;4.72;94.38;98254.66;5057921;28;20093;-43
2023/11/09 07:32:32;;;;;;;10.32;1.30;;;;;;;4.71;94.52;98273.03;5063938;28;20559;-44
2023/11/09 07:34:59;;;;;;;3.03;0.70;;;;;;;4.71;94.50;98258.56;5062509;28;20032;-41
2023/11/09 07:37:27;;;;;;;3.72;1.35;;;;;;;4.71;94.38;98253.09;5067290;28;20124;-46
2023/11/09 07:39:57;;;;;;;4.78;0.70;;;;;;;4.72;94.43;98251.91;5066796;28;20390;-41
2023/11/09 07:42:25;;;;;;;5.63;0.77;;;;;;;4.73;94.74;98250.75;5066682;28;20052;-40
2023/11/09 07:44:51;;;;;;;8.23;2.20;;;;;;;4.70;94.55;98251.50;5067101;28;20040;-41
2023/11/09 07:47:18;;;;;;;6.00;0.70;;;;;;;4.69;94.29;98242.47;5067276;28;20086;-41
2023/11/09 07:49:46;;;;;;;5.55;1.10;;;;;;;4.70;94.45;98240.53;5064546;28;20051;-42
2023/11/09 07:52:14;;;;;;;4.38;1.00;;;;;;;4.70;94.26;98232.31;5065543;28;20044;-42
2023/11/09 07:54:43;;;;;;;4.75;1.98;;;;;;;4.70;94.18;98243.28;5066264;28;20041;-42
2023/11/09 07:57:11;;;;;;;6.15;0.88;;;;;;;4.69;94.49;98244.41;5070568;28;20044;-42
2023/11/09 07:59:38;;;;;;;5.35;0.65;;;;;;;4.68;94.24;98238.16;5070273;28;20498;-43
2023/11/09 08:02:07;;;;;;;5.50;1.05;;;;;;;4.70;94.42;98235.06;5069562;28;20041;-41
2023/11/09 08:04:34;;;;;;;4.43;1.58;;;;;;;4.72;94.35;98227.25;5070593;28;20040;-40
2023/11/09 08:07:01;;;;;;;9.23;0.88;;;;;;;4.73;94.52;98220.63;5064810;28;20520;-43
2023/11/09 08:09:28;;;;;;;3.40;0.82;;;;;;;4.74;94.21;98227.66;5069384;28;20040;-43
2023/11/09 08:11:54;;;;;;;3.45;0.88;;;;;;;4.76;94.13;98233.59;5069720;28;20106;-40
2023/11/09 08:14:22;;;;;;;6.15;0.77;;;;;;;4.75;94.50;98223.78;5068228;28;20043;-43
2023/11/09 08:16:49;;;;;;;4.43;1.63;;;;;;;4.79;94.11;98232.84;5061781;28;20410;-46
2023/11/09 08:19:17;;;;;;;3.05;1.05;;;;;;;4.82;94.30;98240.31;5064505;28;20128;-46
2023/11/09 08:21:43;;;;;;;6.47;0.50;;;;;;;4.84;94.14;98224.31;5065879;28;20089;-40
2023/11/09 08:24:10;;;;;;;7.07;0.63;;;;;;;4.87;93.85;98223.59;5070015;28;20032;-40
2023/11/09 08:26:37;;;;;;;6.13;1.65;;;;;;;4.91;93.94;98227.16;5069081;28;20079;-43
2023/11/09 08:29:07;;;;;;;5.15;1.00;;;;;;;4.93;94.07;98216.59;5069144;28;20063;-42
2023/11/09 08:31:34;;;;;;;2.88;1.02;;;;;;;4.95;94.02;98208.78;5070688;28;20102;-41
2023/11/09 08:34:01;;;;;;;6.00;0.65;;;;;;;5.00;93.92;98210.44;5065970;28;20387;-41
2023/11/09 08:36:28;;;;;;;6.53;0.77;;;;;;;5.01;94.04;98221.03;5069382;28;20328;-44
2023/11/09 08:38:54;;;;;;;5.90;1.23;;;;;;;5.02;93.69;98206.19;5069384;28;20036;-43
2023/11/09 08:41:22;;;;;;;1.58;0.60;;;;;;;5.03;94.03;98205.00;5068662;28;20397;-42
2023/11/09 08:43:49;;;;;;;3.15;0.50;;;;;;;5.04;93.94;98203.84;5066157;28;20060;-43
2023/11/09 08:46:16;;;;;;;2.15;0.50;;;;;;;5.04;93.76;98195.63;5069153;28;20131;-44
2023/11/09 08:48:43;;;;;;;5.30;0.50;;;;;;;5.05;93.79;98194.47;5068324;28;20129;-48
2023/11/09 08:51:14;;;;;;;5.28;0.50;;;;;;;5.09;93.63;98202.72;5068591;28;20044;-45
2023/11/09 08:53:42;;;;;;;4.22;1.77;;;;;;;5.11;93.93;98201.19;5062420;28;20033;-43
2023/11/09 08:56:12;;;;;;;3.97;0.77;;;;;;;5.12;93.69;98189.06;5060575;28;20048;-48
2023/11/09 08:58:39;;;;;;;8.75;2.63;;;;;;;5.18;93.73;98184.84;5067893;28;20568;-46
2023/11/09 09:01:17;;;;;;;8.68;2.22;;;;;;;5.22;93.82;98182.13;5068065;28;20057;-44
2023/11/09 09:03:49;;;;;;;1.85;0.82;;;;;;;5.27;93.64;98165.38;5057526;28;20482;-42
2023/11/09 09:06:17;;;;;;;2.10;0.60;;;;;;;5.29;93.59;98169.34;5065502;28;20047;-43
2023/11/09 09:08:47;;;;;;;1.23;0.65;;;;;;;5.32;93.61;98179.53;5058396;28;20041;-42
2023/11/09 09:11:18;;;;;;;3.05;1.08;;;;;;;5.32;93.99;98165.81;5069781;28;20032;-42
2023/11/09 09:13:45;;;;;;;4.22;0.80;;;;;;;5.37;93.74;98175.69;5069521;28;20494;-47
2023/11/09 09:16:15;;;;;;;4.28;0.55;;;;;;;5.40;93.74;98166.72;5069128;28;20553;-46
2023/11/09 09:18:45;;;;;;;3.70;0.60;;;;;;;5.41;93.70;98160.06;5069631;28;20059;-43
2023/11/09 09:21:12;;;;;;;3.60;0.98;;;;;;;5.44;93.78;98162.06;5068776;28;20040;-41
2023/11/09 09:23:39;;;;;;;3.88;0.50;;;;;;;5.42;93.52;98161.63;5068573;28;20052;-45
2023/11/09 09:26:07;;;;;;;2.05;0.93;;;;;;;5.42;93.68;98159.69;5069103;28;20095;-41
2023/11/09 09:28:47;;;;;;;2.22;0.52;;;;;;;5.44;93.70;98154.63;5061767;28;20090;-43
2023/11/09 09:31:18;;;;;;;3.70;0.75;;;;;;;5.48;93.82;98144.47;5056018;28;20131;-42
2023/11/09 09:34:07;;;;;;;2.17;0.50;;;;;;;5.50;93.66;98139.41;5064504;28;20041;-48
2023/11/09 09:36:37;;;;;;;1.17;0.70;;;;;;;5.54;93.32;98136.69;5068675;28;20091;-45
2023/11/09 09:39:04;;;;;;;5.10;0.98;;;;;;;5.59;93.68;98132.84;5069088;28;20067;-44
2023/11/09 09:41:40;;;;;;;3.35;0.90;;;;;;;5.63;93.54;98134.44;5069522;28;20490;-47
2023/11/09 09:44:12;;;;;;;4.40;0.60;;;;;;;5.67;93.36;98126.22;5068058;28;20111;-44
2023/11/09 09:46:40;;;;;;;12.20;1.37;;;;;;;5.70;93.11;98114.50;5067978;28;20098;-43
2023/11/09 09:49:09;;;;;;;5.13;1.15;;;;;;;5.75;93.27;98114.94;5062269;28;20487;-43
2023/11/09 09:51:36;;;;;;;4.03;0.52;;;;;;;5.82;93.28;98101.31;5068828;28;20447;-45
2023/11/09 09:54:08;;;;;;;3.83;0.40;;;;;;;5.86;93.04;98099.41;5068916;28;20053;-47
2023/11/09 09:56:38;;;;;;;3.33;0.60;;;;;;;5.93;93.30;98098.69;5063128;28;20048;-45
2023/11/09 09:59:07;;;;;;;7.15;0.95;;;;;;;6.01;93.11;98103.84;5068584;28;20486;-45
2023/11/09 10:01:36;;;;;;;4.13;0.60;;;;;;;6.12;93.06;98106.69;5066732;28;20135;-42
2023/11/09 10:04:05;;;;;;;2.92;0.63;;;;;;;6.21;93.02;98107.16;5065187;28;20036;-47
2023/11/09 10:06:34;;;;;;;3.17;0.68;;;;;;;6.31;92.79;98100.97;5064932;28;20452;-47
2023/11/09 10:09:04;;;;;;;5.50;1.35;;;;;;;6.38;92.58;98106.50;5066721;28;20484;-47
2023/11/09 10:11:32;;;;;;;5.95;1.80;;;;;;;6.44;92.66;98104.97;5066695;28;20028;-46
2023/11/09 10:14:01;;;;;;;2.38;0.75;;;;;;;6.49;92.45;98101.88;5065320;28;20028;-49
2023/11/09 10:16:31;;;;;;;3.85;0.60;;;;;;;6.54;92.50;98096.00;5064256;28;20036;-43
2023/11/09 10:19:01;;;;;;;1.67;0.63;;;;;;;6.58;92.44;98102.34;5063832;28;20040;-47
2023/11/09 10:21:32;;;;;;;3.88;0.70;;;;;;;6.62;92.45;98100.38;5065606;28;20052;-42
2023/11/09 10:23:59;;;;;;;3.95;0.93;;;;;;;6.64;92.23;98098.06;5065400;28;20036;-46
2023/11/09 10:26:40;;;;;;;0.65;0.50;;;;;;;6.65;92.15;98096.88;5065790;28;20037;-43
2023/11/09 10:29:13;;;;;;;2.60;0.30;;;;;;;6.65;92.14;98080.38;5061869;28;20044;-44
2023/11/09 10:31:41;;;;;;;4.30;2.30;;;;;;;6.67;92.00;98074.53;5066201;28;20456;-43
2023/11/09 10:34:11;;;;;;;3.22;0.70;;;;;;;6.68;92.02;98087.88;5061542;28;20501;-41
2023/11/09 10:36:45;;;;;;;5.97;0.88;;;;;;;6.70;92.00;98076.47;5066204;28;20047;-46
2023/11/09 10:39:17;;;;;;;6.57;0.60;;;;;;;6.73;91.97;98076.50;5061646;28;20052;-44
2023/11/09 10:41:48;;;;;;;1.75;0.75;;;;;;;6.75;91.88;98062.38;5065910;28;20120;-43
2023/11/09 10:44:28;;;;;;;4.80;1.73;;;;;;;6.79;91.83;98057.69;5067417;28;20041;-43
2023/11/09 10:46:59;;;;;;;3.42;1.05;;;;;;;6.87;91.94;98061.25;5065322;28;20036;-44
2023/11/09 10:49:35;;;;;;;7.60;0.80;;;;;;;6.96;91.97;98051.50;5062617;28;20178;-45
2023/11/09 10:52:05;;;;;;;2.85;0.68;;;;;;;7.04;91.68;98053.06;5068142;28;20064;-43
2023/11/09 10:54:32;;;;;;;4.03;0.55;;;;;;;7.09;91.59;98062.94;5056831;28;20553;-41
2023/11/09 10:57:00;;;;;;;4.70;1.45;;;;;;;7.07;91.44;98057.81;5066291;28;20417;-47
2023/11/09 10:59:29;;;;;;;0.88;0.63;;;;;;;7.08;91.43;98050.34;5066198;28;20078;-41
2023/11/09 11:02:04;;;;;;;3.75;0.60;;;;;;;7.12;91.66;98053.91;5064623;28;20044;-46
2023/11/09 11:04:36;;;;;;;1.30;0.40;;;;;;;7.18;91.70;98057.84;5061320;28;20094;-44
2023/11/09 11:07:06;;;;;;;2.80;1.42;;;;;;;7.20;91.54;98048.03;5065168;28;20510;-41
2023/11/09 11:09:37;;;;;;;4.05;0.68;;;;;;;7.23;91.31;98060.22;5063620;28;20040;-46
2023/11/09 11:12:11;;;;;;;2.13;0.70;;;;;;;7.28;91.18;98041.38;5063927;28;20048;-42
2023/11/09 11:14:42;;;;;;;11.25;2.35;;;;;;;7.40;91.19;98026.47;5054930;28;20056;-44
2023/11/09 11:17:32;;;;;;;4.60;0.50;;;;;;;7.51;90.98;98027.28;5056515;28;20048;-48
2023/11/09 11:20:36;;;;;;;1.80;0.70;;;;;;;7.57;90.69;98044.97;5064989;28;20090;-47
2023/11/09 11:23:08;;;;;;;2.28;1.00;;;;;;;7.62;90.28;98036.34;5064222;28;20036;-42
2023/11/09 11:25:46;;;;;;;7.88;1.15;;;;;;;7.66;90.63;98017.84;5065528;28;20098;-42
2023/11/09 11:28:17;;;;;;;4.22;1.90;;;;;;;7.70;90.21;98018.66;5066593;28;20448;-45
2023/11/09 11:30:44;;;;;;;6.93;0.90;;;;;;;7.80;90.80;98009.59;5066723;28;20621;-45
2023/11/09 11:33:16;;;;;;;4.20;1.95;;;;;;;7.87;90.32;98006.06;5067169;28;20033;-46
2023/11/09 11:35:47;;;;;;;3.28;0.82;;;;;;;7.88;90.11;97996.63;5065848;28;20093;-42
2023/11/09 11:38:15;;;;;;;3.33;0.75;;;;;;;7.85;89.83;97981.66;5061690;28;20051;-42
2023/11/09 11:40:43;;;;;;;2.15;0.80;;;;;;;7.81;89.86;97991.88;5067450;28;20044;-52
2023/11/09 11:43:11;;;;;;;6.10;1.30;;;;;;;7.80;90.05;97984.81;5061143;28;20481;-45
2023/11/09 11:45:41;;;;;;;7.30;0.95;;;;;;;7.76;89.95;97973.00;5066759;28;20141;-47
2023/11/09 11:48:27;;;;;;;4.45;1.27;;;;;;;7.74;90.06;97977.31;5064990;28;20108;-43
2023/11/09 11:51:06;;;;;;;3.60;0.60;;;;;;;7.71;89.75;97965.13;5066972;28;20055;-43
2023/11/09 11:53:34;;;;;;;3.72;0.55;;;;;;;7.71;89.95;97967.88;5065683;28;20044;-47
2023/11/09 11:56:10;;;;;;;2.17;0.98;;;;;;;7.75;89.76;97974.19;5066564;28;20115;-47
2023/11/09 11:58:48;;;;;;;3.95;0.47;;;;;;;7.78;89.53;97961.59;5064499;28;20786;-44